createdAt,value
2019-05-26T00:00:23.532Z,23.46
2019-05-26T00:02:53.231Z,23.47
2019-05-26T00:05:22.704Z,23.11
2019-05-26T00:07:52.287Z,23.47
2019-05-26T00:10:22.010Z,23.46
2019-05-26T00:12:51.467Z,23.46
2019-05-26T00:15:21.118Z,23.46
2019-05-26T00:17:50.706Z,23.46
2019-05-26T00:20:20.362Z,23.47
2019-05-26T00:22:49.794Z,23.48
2019-05-26T00:25:20.057Z,23.47
2019-05-26T00:27:49.617Z,23.48
2019-05-26T00:30:19.566Z,23.49
2019-05-26T00:32:49.218Z,23.50
2019-05-26T00:35:18.699Z,23.49
2019-05-26T00:37:50.362Z,23.49
2019-05-26T00:40:19.737Z,23.50
2019-05-26T00:42:52.286Z,23.51
2019-05-26T00:45:21.943Z,23.51
2019-05-26T00:47:51.457Z,23.51
2019-05-26T00:50:21.208Z,23.51
2019-05-26T00:52:50.873Z,23.52
2019-05-26T00:55:20.795Z,23.52
2019-05-26T00:57:50.618Z,23.52
2019-05-26T01:00:36.669Z,23.52
2019-05-26T01:03:06.153Z,23.52
2019-05-26T01:05:38.353Z,23.52
2019-05-26T01:08:08.732Z,23.52
2019-05-26T01:10:38.366Z,23.51
2019-05-26T01:13:07.911Z,23.52
2019-05-26T01:15:37.465Z,23.51
2019-05-26T01:18:08.361Z,23.52
2019-05-26T01:20:49.544Z,23.50
2019-05-26T01:23:25.370Z,23.52
2019-05-26T01:25:54.915Z,23.51
2019-05-26T01:28:24.404Z,23.51
2019-05-26T01:30:53.874Z,23.51
2019-05-26T01:33:23.430Z,23.51
2019-05-26T01:35:53.065Z,23.51
2019-05-26T01:38:24.668Z,23.50
2019-05-26T01:40:54.424Z,23.51
2019-05-26T01:43:23.962Z,23.51
2019-05-26T01:45:53.391Z,23.50
2019-05-26T01:48:24.709Z,23.51
2019-05-26T01:50:54.157Z,23.50
2019-05-26T01:53:23.750Z,23.51
2019-05-26T01:55:53.226Z,23.51
2019-05-26T01:58:22.758Z,23.50
2019-05-26T02:00:52.176Z,23.51
2019-05-26T02:03:21.741Z,23.51
2019-05-26T02:05:53.807Z,23.51
2019-05-26T02:08:36.594Z,23.50
2019-05-26T02:10:54.546Z,23.52
2019-05-26T02:13:26.469Z,23.51
2019-05-26T02:15:55.952Z,23.50
2019-05-26T02:18:25.626Z,23.50
2019-05-26T02:20:57.899Z,23.49
2019-05-26T02:23:27.389Z,23.48
2019-05-26T02:25:59.591Z,23.48
2019-05-26T02:28:31.842Z,23.47
2019-05-26T02:31:01.301Z,23.46
2019-05-26T02:33:32.501Z,23.46
2019-05-26T02:36:02.267Z,23.46
2019-05-26T02:38:31.841Z,23.45
2019-05-26T02:41:03.473Z,23.45
2019-05-26T02:43:32.942Z,23.45
2019-05-26T02:46:02.425Z,23.44
2019-05-26T02:48:31.945Z,23.43
2019-05-26T02:51:01.370Z,23.43
2019-05-26T02:53:31.009Z,23.43
2019-05-26T02:56:00.714Z,23.42
2019-05-26T02:58:30.176Z,23.42
2019-05-26T03:01:02.878Z,23.43
2019-05-26T03:03:32.576Z,23.43
2019-05-26T03:06:06.597Z,23.44
2019-05-26T03:08:38.470Z,23.43
2019-05-26T03:11:12.025Z,23.43
2019-05-26T03:13:42.601Z,23.43
2019-05-26T03:16:12.918Z,23.43
2019-05-26T03:18:44.409Z,23.43
2019-05-26T03:21:14.599Z,23.43
2019-05-26T03:23:49.971Z,23.44
2019-05-26T03:26:21.744Z,23.44
2019-05-26T03:28:51.267Z,23.44
2019-05-26T03:31:21.024Z,23.45
2019-05-26T03:33:50.608Z,23.44
2019-05-26T03:36:20.336Z,23.45
2019-05-26T03:38:49.955Z,23.46
2019-05-26T03:41:19.504Z,23.46
2019-05-26T03:43:51.883Z,23.46
2019-05-26T03:46:22.010Z,23.46
2019-05-26T03:48:53.515Z,23.47
2019-05-26T03:51:24.833Z,23.47
2019-05-26T03:53:54.282Z,23.47
2019-05-26T03:56:26.916Z,23.48
2019-05-26T03:58:58.000Z,23.48
2019-05-26T04:01:27.907Z,23.49
2019-05-26T04:04:00.243Z,23.49
2019-05-26T04:06:31.505Z,23.49
2019-05-26T04:09:03.135Z,23.49
2019-05-26T04:11:34.765Z,23.50
2019-05-26T04:14:04.650Z,23.51
2019-05-26T04:16:36.072Z,23.52
2019-05-26T04:19:05.858Z,23.51
2019-05-26T04:21:35.350Z,23.52
2019-05-26T04:24:09.860Z,23.52
2019-05-26T04:26:39.337Z,23.53
2019-05-26T04:29:10.010Z,23.54
2019-05-26T04:31:39.802Z,23.54
2019-05-26T04:34:12.048Z,23.53
2019-05-26T04:36:41.505Z,23.54
2019-05-26T04:39:13.683Z,23.55
2019-05-26T04:41:43.768Z,23.55
2019-05-26T04:44:13.215Z,23.55
2019-05-26T04:46:42.774Z,23.55
2019-05-26T04:49:12.223Z,23.55
2019-05-26T04:51:43.113Z,23.55
2019-05-26T04:54:14.058Z,23.56
2019-05-26T04:56:43.507Z,23.56
2019-05-26T04:59:19.156Z,23.57
2019-05-26T05:01:48.625Z,23.57
2019-05-26T05:04:18.517Z,23.57
2019-05-26T05:06:48.259Z,23.57
2019-05-26T05:09:17.731Z,23.57
2019-05-26T05:11:47.501Z,23.58
2019-05-26T05:14:18.241Z,23.58
2019-05-26T05:16:47.824Z,23.58
2019-05-26T05:19:19.054Z,23.58
2019-05-26T05:21:48.579Z,23.58
2019-05-26T05:24:18.067Z,23.59
2019-05-26T05:26:47.699Z,23.60
2019-05-26T05:29:20.726Z,23.60
2019-05-26T05:31:53.067Z,23.60
2019-05-26T05:34:25.640Z,23.59
2019-05-26T05:36:57.637Z,23.60
2019-05-26T05:39:29.216Z,23.60
2019-05-26T05:41:58.968Z,23.60
2019-05-26T05:44:28.676Z,23.61
2019-05-26T05:46:58.388Z,23.61
2019-05-26T05:49:27.945Z,23.62
2019-05-26T05:52:02.729Z,23.62
2019-05-26T05:54:32.362Z,23.63
2019-05-26T05:57:04.657Z,23.62
2019-05-26T05:59:38.159Z,23.64
2019-05-26T06:02:10.250Z,23.64
2019-05-26T06:04:45.190Z,23.65
2019-05-26T06:07:14.745Z,23.65
2019-05-26T06:09:46.502Z,23.65
2019-05-26T06:12:16.019Z,23.67
2019-05-26T06:14:45.535Z,23.68
2019-05-26T06:17:17.376Z,23.71
2019-05-26T06:19:46.889Z,23.72
2019-05-26T06:22:18.380Z,23.74
2019-05-26T06:24:49.522Z,23.77
2019-05-26T06:27:21.333Z,23.79
2019-05-26T06:29:58.864Z,23.80
2019-05-26T06:32:23.483Z,23.81
2019-05-26T06:34:53.246Z,23.82
2019-05-26T06:37:24.877Z,23.83
2019-05-26T06:39:54.305Z,23.83
2019-05-26T06:42:26.367Z,23.85
2019-05-26T06:44:55.905Z,23.85
2019-05-26T06:47:26.903Z,23.86
2019-05-26T06:49:56.783Z,23.86
2019-05-26T06:52:26.216Z,23.86
2019-05-26T06:54:55.757Z,23.86
2019-05-26T06:57:25.404Z,23.89
2019-05-26T06:59:54.902Z,23.89
2019-05-26T07:02:24.350Z,23.88
2019-05-26T07:04:53.900Z,23.90
2019-05-26T07:07:23.368Z,23.92
2019-05-26T07:09:52.850Z,23.91
2019-05-26T07:12:22.276Z,23.92
2019-05-26T07:14:51.848Z,23.94
2019-05-26T07:17:21.337Z,23.94
2019-05-26T07:19:53.387Z,23.96
2019-05-26T07:22:22.886Z,23.98
2019-05-26T07:24:52.386Z,23.98
2019-05-26T07:27:21.968Z,23.98
2019-05-26T07:29:51.452Z,24.00
2019-05-26T07:32:21.421Z,24.00
2019-05-26T07:34:50.957Z,24.00
2019-05-26T07:37:20.404Z,24.02
2019-05-26T07:39:49.926Z,24.02
2019-05-26T07:42:19.431Z,24.03
2019-05-26T07:44:49.026Z,24.02
2019-05-26T07:47:18.652Z,24.02
2019-05-26T07:49:48.142Z,24.03
2019-05-26T07:52:17.605Z,24.02
2019-05-26T07:54:47.227Z,24.03
2019-05-26T07:57:16.740Z,24.04
2019-05-26T07:59:46.327Z,24.05
2019-05-26T08:02:15.921Z,24.06
2019-05-26T08:04:45.513Z,24.07
2019-05-26T08:07:15.024Z,24.08
2019-05-26T08:09:44.545Z,24.09
2019-05-26T08:12:25.807Z,24.09
2019-05-26T08:14:45.331Z,24.09
2019-05-26T08:17:14.970Z,24.10
2019-05-26T08:19:44.520Z,24.11
2019-05-26T08:22:14.066Z,24.12
2019-05-26T08:24:43.560Z,24.12
2019-05-26T08:27:13.094Z,24.12
2019-05-26T08:29:42.630Z,24.13
2019-05-26T08:32:14.917Z,24.13
2019-05-26T08:34:43.519Z,24.13
2019-05-26T08:37:12.977Z,24.15
2019-05-26T08:39:42.504Z,24.14
2019-05-26T08:42:26.293Z,24.15
2019-05-26T08:44:43.588Z,24.15
2019-05-26T08:47:13.181Z,24.15
2019-05-26T08:49:42.675Z,24.14
2019-05-26T08:52:14.919Z,24.14
2019-05-26T08:54:46.944Z,24.13
2019-05-26T08:57:16.420Z,24.14
2019-05-26T08:59:49.013Z,24.14
2019-05-26T09:02:18.609Z,24.14
2019-05-26T09:04:48.114Z,24.15
2019-05-26T09:07:17.689Z,24.16
2019-05-26T09:09:47.230Z,24.16
2019-05-26T09:12:16.782Z,24.17
2019-05-26T09:14:46.315Z,24.17
2019-05-26T09:17:15.904Z,24.19
2019-05-26T09:19:45.839Z,24.20
2019-05-26T09:22:15.357Z,24.20
2019-05-26T09:24:44.830Z,24.21
2019-05-26T09:27:14.367Z,24.21
2019-05-26T09:29:43.891Z,24.22
2019-05-26T09:32:13.568Z,24.22
2019-05-26T09:34:43.068Z,24.22
2019-05-26T09:37:12.608Z,24.23
2019-05-26T09:39:42.179Z,24.24
2019-05-26T09:42:11.818Z,24.23
2019-05-26T09:44:41.455Z,24.24
2019-05-26T09:47:10.984Z,24.25
2019-05-26T09:49:40.478Z,24.25
2019-05-26T09:52:10.045Z,24.26
2019-05-26T09:54:39.601Z,24.26
2019-05-26T09:57:09.122Z,24.27
2019-05-26T09:59:38.633Z,24.29
2019-05-26T10:02:08.222Z,24.30
2019-05-26T10:04:37.956Z,24.32
2019-05-26T10:07:10.768Z,24.33
2019-05-26T10:09:38.851Z,24.34
2019-05-26T10:12:08.311Z,24.38
2019-05-26T10:14:37.885Z,24.40
2019-05-26T10:17:07.729Z,24.41
2019-05-26T10:19:37.230Z,24.43
2019-05-26T10:22:06.863Z,24.46
2019-05-26T10:24:36.306Z,24.49
2019-05-26T10:27:06.006Z,24.51
2019-05-26T10:29:35.649Z,24.55
2019-05-26T10:32:05.389Z,24.56
2019-05-26T10:34:34.884Z,24.58
2019-05-26T10:37:04.538Z,24.61
2019-05-26T10:39:34.055Z,24.64
2019-05-26T10:42:06.608Z,24.66
2019-05-26T10:44:39.059Z,24.67
2019-05-26T10:47:08.587Z,24.68
2019-05-26T10:49:38.418Z,24.69
2019-05-26T10:52:08.118Z,24.70
2019-05-26T10:54:37.702Z,24.70
2019-05-26T10:57:07.252Z,24.69
2019-05-26T10:59:36.852Z,24.69
2019-05-26T11:02:06.628Z,24.69
2019-05-26T11:04:36.199Z,24.68
2019-05-26T11:07:06.006Z,24.68
2019-05-26T11:09:35.485Z,24.68
2019-05-26T11:12:05.239Z,24.68
2019-05-26T11:14:34.796Z,24.68
2019-05-26T11:17:04.324Z,24.67
2019-05-26T11:19:33.838Z,24.67
2019-05-26T11:22:03.446Z,24.67
2019-05-26T11:24:33.017Z,24.65
2019-05-26T11:27:09.817Z,24.65
2019-05-26T11:29:33.945Z,24.65
2019-05-26T11:32:03.494Z,24.66
2019-05-26T11:34:33.154Z,24.65
2019-05-26T11:37:02.643Z,24.68
2019-05-26T11:39:32.311Z,24.70
2019-05-26T11:42:12.770Z,24.72
2019-05-26T11:44:33.031Z,24.73
2019-05-26T11:47:02.728Z,24.76
2019-05-26T11:49:32.253Z,24.77
2019-05-26T11:52:01.891Z,24.77
2019-05-26T11:54:34.492Z,24.78
2019-05-26T11:57:02.689Z,24.77
2019-05-26T11:59:32.165Z,24.76
2019-05-26T12:02:01.754Z,24.74
2019-05-26T12:04:31.264Z,24.72
2019-05-26T12:07:04.369Z,24.71
2019-05-26T12:09:33.149Z,24.70
2019-05-26T12:12:03.528Z,24.70
2019-05-26T12:14:35.223Z,24.68
2019-05-26T12:17:04.586Z,24.65
2019-05-26T12:19:35.267Z,24.64
2019-05-26T12:22:04.823Z,24.61
2019-05-26T12:24:54.730Z,24.58
2019-05-26T12:27:24.218Z,24.56
2019-05-26T12:29:53.699Z,24.54
2019-05-26T12:32:23.209Z,24.53
2019-05-26T12:34:55.783Z,24.52
2019-05-26T12:37:25.306Z,24.50
2019-05-26T12:39:54.929Z,24.50
2019-05-26T12:42:24.504Z,24.48
2019-05-26T12:44:54.088Z,24.49
2019-05-26T12:47:23.674Z,24.49
2019-05-26T12:49:53.297Z,24.49
2019-05-26T12:52:22.876Z,24.49
2019-05-26T12:54:52.402Z,24.50
2019-05-26T12:57:21.860Z,24.50
2019-05-26T12:59:51.367Z,24.50
2019-05-26T13:02:20.953Z,24.52
2019-05-26T13:04:50.440Z,24.52
2019-05-26T13:07:19.903Z,24.53
2019-05-26T13:09:49.457Z,24.53
2019-05-26T13:12:22.340Z,24.53
2019-05-26T13:15:05.047Z,24.53
2019-05-26T13:17:22.979Z,24.55
2019-05-26T13:19:52.491Z,24.57
2019-05-26T13:22:22.006Z,24.60
2019-05-26T13:24:51.559Z,24.65
2019-05-26T13:27:21.097Z,24.67
2019-05-26T13:29:51.433Z,24.69
2019-05-26T13:32:21.119Z,24.72
2019-05-26T13:34:50.701Z,24.75
2019-05-26T13:37:21.702Z,24.78
2019-05-26T13:39:51.258Z,24.80
2019-05-26T13:42:20.737Z,24.82
2019-05-26T13:44:50.233Z,24.84
2019-05-26T13:47:26.112Z,24.86
2019-05-26T13:49:51.121Z,24.87
2019-05-26T13:52:20.683Z,24.88
2019-05-26T13:54:50.308Z,24.88
2019-05-26T13:57:19.883Z,24.89
2019-05-26T13:59:49.526Z,24.88
2019-05-26T14:02:21.715Z,24.88
2019-05-26T14:04:51.268Z,24.87
2019-05-26T14:07:20.758Z,24.87
2019-05-26T14:09:50.316Z,24.88
2019-05-26T14:12:19.849Z,24.88
2019-05-26T14:14:49.732Z,24.88
2019-05-26T14:17:20.945Z,24.88
2019-05-26T14:19:51.958Z,24.89
2019-05-26T14:22:21.640Z,24.89
2019-05-26T14:24:54.241Z,24.91
2019-05-26T14:27:22.546Z,24.90
2019-05-26T14:29:52.150Z,24.91
2019-05-26T14:32:21.916Z,24.92
2019-05-26T14:34:53.227Z,24.94
2019-05-26T14:37:22.785Z,24.95
2019-05-26T14:39:52.443Z,24.95
2019-05-26T14:42:21.978Z,24.95
2019-05-26T14:44:52.727Z,24.96
2019-05-26T14:47:22.340Z,24.97
2019-05-26T14:49:54.393Z,24.97
2019-05-26T14:52:23.922Z,24.97
2019-05-26T14:54:53.455Z,24.98
2019-05-26T14:57:22.932Z,24.97
2019-05-26T14:59:52.399Z,24.98
2019-05-26T15:02:21.974Z,24.97
2019-05-26T15:04:52.972Z,24.96
2019-05-26T15:07:22.518Z,24.95
2019-05-26T15:09:52.148Z,24.93
2019-05-26T15:12:21.746Z,24.92
2019-05-26T15:14:51.304Z,24.91
2019-05-26T15:17:20.953Z,24.89
2019-05-26T15:19:50.503Z,24.88
2019-05-26T15:22:20.101Z,24.87
2019-05-26T15:24:49.686Z,24.86
2019-05-26T15:27:19.217Z,24.86
2019-05-26T15:29:51.903Z,24.86
2019-05-26T15:32:22.948Z,24.85
2019-05-26T15:34:52.512Z,24.84
2019-05-26T15:37:25.062Z,24.84
2019-05-26T15:39:54.669Z,24.83
2019-05-26T15:42:24.448Z,24.83
2019-05-26T15:44:55.137Z,24.83
2019-05-26T15:47:24.849Z,24.83
2019-05-26T15:49:54.327Z,24.82
2019-05-26T15:52:24.144Z,24.83
2019-05-26T15:54:53.803Z,24.82
2019-05-26T15:57:23.371Z,24.81
2019-05-26T15:59:54.579Z,24.81
2019-05-26T16:02:24.322Z,24.81
2019-05-26T16:04:53.981Z,24.80
2019-05-26T16:07:26.098Z,24.78
2019-05-26T16:09:55.581Z,24.76
2019-05-26T16:12:25.630Z,24.74
2019-05-26T16:14:55.573Z,24.73
2019-05-26T16:17:25.078Z,24.71
2019-05-26T16:19:54.648Z,24.71
2019-05-26T16:22:25.335Z,24.69
2019-05-26T16:24:54.914Z,24.68
2019-05-26T16:27:24.423Z,24.66
2019-05-26T16:29:53.998Z,24.65
2019-05-26T16:32:23.590Z,24.63
2019-05-26T16:34:53.122Z,24.62
2019-05-26T16:37:24.050Z,24.62
2019-05-26T16:39:56.022Z,24.60
2019-05-26T16:42:25.503Z,24.60
2019-05-26T16:44:55.100Z,24.58
2019-05-26T16:47:24.647Z,24.57
2019-05-26T16:49:54.374Z,24.55
2019-05-26T16:52:23.903Z,24.55
2019-05-26T16:54:53.365Z,24.53
2019-05-26T16:57:23.345Z,24.52
2019-05-26T16:59:52.846Z,24.52
2019-05-26T17:02:22.445Z,24.51
2019-05-26T17:04:51.956Z,24.50
2019-05-26T17:07:21.530Z,24.49
2019-05-26T17:09:51.151Z,24.49
2019-05-26T17:12:20.837Z,24.47
2019-05-26T17:14:50.497Z,24.45
2019-05-26T17:17:20.054Z,24.44
2019-05-26T17:19:52.640Z,24.43
2019-05-26T17:22:20.890Z,24.42
2019-05-26T17:24:50.459Z,24.40
2019-05-26T17:27:22.208Z,24.40
2019-05-26T17:29:52.049Z,24.38
2019-05-26T17:32:21.621Z,24.37
2019-05-26T17:34:51.115Z,24.35
2019-05-26T17:37:20.716Z,24.34
2019-05-26T17:39:50.576Z,24.32
2019-05-26T17:42:20.551Z,24.30
2019-05-26T17:44:50.087Z,24.28
2019-05-26T17:47:29.870Z,24.27
2019-05-26T17:49:51.012Z,24.25
2019-05-26T17:52:20.673Z,24.24
2019-05-26T17:54:50.153Z,24.22
2019-05-26T17:57:19.621Z,24.20
2019-05-26T17:59:49.727Z,24.17
2019-05-26T18:02:19.257Z,24.15
2019-05-26T18:04:48.838Z,24.13
2019-05-26T18:07:18.544Z,24.12
2019-05-26T18:09:48.111Z,24.09
2019-05-26T18:12:24.507Z,24.08
2019-05-26T18:14:55.975Z,24.04
2019-05-26T18:17:25.664Z,24.04
2019-05-26T18:19:55.266Z,24.01
2019-05-26T18:22:24.882Z,23.99
2019-05-26T18:24:58.141Z,23.98
2019-05-26T18:27:26.633Z,23.94
2019-05-26T18:29:56.205Z,23.92
2019-05-26T18:32:25.890Z,23.90
2019-05-26T18:34:55.436Z,23.88
2019-05-26T18:37:25.026Z,23.86
2019-05-26T18:39:54.593Z,23.85
2019-05-26T18:42:24.127Z,23.83
2019-05-26T18:44:53.603Z,23.81
2019-05-26T18:47:23.074Z,23.79
2019-05-26T18:49:52.946Z,23.78
2019-05-26T18:52:22.496Z,23.75
2019-05-26T18:54:52.502Z,23.73
2019-05-26T18:57:23.154Z,23.73
2019-05-26T18:59:52.911Z,23.71
2019-05-26T19:02:22.877Z,23.70
2019-05-26T19:04:52.572Z,23.68
2019-05-26T19:07:22.274Z,23.68
2019-05-26T19:09:51.757Z,23.66
2019-05-26T19:12:23.524Z,23.65
2019-05-26T19:14:53.076Z,23.64
2019-05-26T19:17:22.693Z,23.62
2019-05-26T19:19:52.480Z,23.61
2019-05-26T19:22:22.090Z,23.60
2019-05-26T19:24:51.986Z,23.59
2019-05-26T19:27:21.680Z,23.58
2019-05-26T19:29:51.774Z,23.56
2019-05-26T19:32:22.190Z,23.57
2019-05-26T19:34:52.098Z,23.58
2019-05-26T19:37:22.007Z,23.58
2019-05-26T19:39:51.712Z,23.60
2019-05-26T19:42:21.282Z,23.60
2019-05-26T19:44:50.859Z,23.61
2019-05-26T19:47:20.490Z,23.63
2019-05-26T19:49:50.038Z,23.65
2019-05-26T19:52:19.798Z,23.65
2019-05-26T19:54:51.365Z,23.66
2019-05-26T19:57:21.438Z,23.68
2019-05-26T19:59:51.300Z,23.70
2019-05-26T20:02:21.099Z,23.72
2019-05-26T20:04:50.906Z,23.75
2019-05-26T20:07:20.425Z,23.79
2019-05-26T20:09:50.039Z,23.82
2019-05-26T20:12:19.655Z,23.85
2019-05-26T20:14:49.167Z,23.88
2019-05-26T20:17:18.828Z,23.90
2019-05-26T20:19:48.283Z,23.93
2019-05-26T20:22:18.593Z,23.96
2019-05-26T20:24:48.174Z,24.00
2019-05-26T20:27:17.682Z,24.02
2019-05-26T20:29:48.695Z,24.03
2019-05-26T20:32:18.323Z,24.06
2019-05-26T20:34:47.935Z,24.10
2019-05-26T20:37:17.389Z,24.16
2019-05-26T20:39:47.070Z,24.19
2019-05-26T20:42:16.587Z,24.23
2019-05-26T20:44:46.188Z,24.26
2019-05-26T20:47:15.666Z,24.31
2019-05-26T20:49:46.063Z,24.33
2019-05-26T20:52:20.587Z,24.35
2019-05-26T20:54:50.091Z,24.37
2019-05-26T20:57:21.491Z,24.40
2019-05-26T20:59:51.113Z,24.41
2019-05-26T21:02:20.603Z,24.42
2019-05-26T21:04:50.126Z,24.43
2019-05-26T21:07:20.611Z,24.44
2019-05-26T21:09:50.159Z,24.46
2019-05-26T21:12:19.791Z,24.46
2019-05-26T21:14:49.418Z,24.46
2019-05-26T21:17:21.433Z,24.46
2019-05-26T21:19:51.041Z,24.46
2019-05-26T21:22:20.583Z,24.47
2019-05-26T21:24:50.190Z,24.47
2019-05-26T21:27:20.105Z,24.46
2019-05-26T21:29:49.654Z,24.47
2019-05-26T21:32:19.305Z,24.47
2019-05-26T21:34:49.770Z,24.46
2019-05-26T21:37:19.468Z,24.46
2019-05-26T21:39:49.027Z,24.47
2019-05-26T21:42:18.502Z,24.45
2019-05-26T21:44:48.238Z,24.43
2019-05-26T21:47:17.720Z,24.40
2019-05-26T21:49:49.802Z,24.37
2019-05-26T21:52:19.427Z,24.33
2019-05-26T21:54:49.020Z,24.30
2019-05-26T21:57:18.563Z,24.26
2019-05-26T21:59:48.055Z,24.23
2019-05-26T22:02:17.592Z,24.22
2019-05-26T22:04:47.048Z,24.21
2019-05-26T22:07:16.600Z,24.19
2019-05-26T22:09:46.089Z,24.19
2019-05-26T22:12:15.902Z,24.17
2019-05-26T22:14:45.571Z,24.15
2019-05-26T22:17:15.073Z,24.14
2019-05-26T22:19:44.628Z,24.14
2019-05-26T22:22:14.187Z,24.11
2019-05-26T22:24:43.735Z,24.11
2019-05-26T22:27:13.176Z,24.09
2019-05-26T22:29:42.721Z,24.09
2019-05-26T22:32:12.317Z,24.08
2019-05-26T22:34:41.854Z,24.07
2019-05-26T22:37:11.361Z,24.06
2019-05-26T22:39:40.910Z,24.05
2019-05-26T22:42:10.590Z,24.03
2019-05-26T22:44:40.038Z,24.03
2019-05-26T22:47:09.620Z,24.01
2019-05-26T22:49:39.110Z,24.01
2019-05-26T22:52:08.714Z,24.00
2019-05-26T22:54:38.356Z,23.98
2019-05-26T22:57:07.880Z,24.00
2019-05-26T22:59:37.366Z,23.98
2019-05-26T23:02:07.011Z,23.98
2019-05-26T23:04:36.569Z,24.01
2019-05-26T23:07:06.153Z,24.03
2019-05-26T23:09:35.742Z,24.05
2019-05-26T23:12:05.201Z,24.07
2019-05-26T23:14:34.733Z,24.09
2019-05-26T23:17:04.358Z,24.11
2019-05-26T23:19:33.887Z,24.13
2019-05-26T23:22:03.415Z,24.14
2019-05-26T23:24:33.040Z,24.16
2019-05-26T23:27:02.564Z,24.17
2019-05-26T23:29:32.265Z,24.18
2019-05-26T23:32:01.803Z,24.19
2019-05-26T23:34:31.298Z,24.20
2019-05-26T23:37:00.780Z,24.21
2019-05-26T23:39:30.383Z,24.22
2019-05-26T23:42:00.053Z,24.21
2019-05-26T23:44:29.517Z,24.22
2019-05-26T23:46:59.148Z,24.23
2019-05-26T23:49:28.602Z,24.24
2019-05-26T23:51:58.106Z,24.24
2019-05-26T23:54:27.908Z,24.25
2019-05-26T23:56:57.337Z,24.24
2019-05-26T23:59:26.909Z,24.25
